createdAt,value
2019-02-07T00:00:24.877Z,2.70
2019-02-07T00:02:54.713Z,3.10
2019-02-07T00:05:22.718Z,3.10
2019-02-07T00:07:50.796Z,3.30
2019-02-07T00:10:18.887Z,3.40
2019-02-07T00:12:46.804Z,3.60
2019-02-07T00:15:15.561Z,3.40
2019-02-07T00:17:45.555Z,3.50
2019-02-07T00:20:14.383Z,3.80
2019-02-07T00:22:42.311Z,3.30
2019-02-07T00:25:10.393Z,3.20
2019-02-07T00:27:38.382Z,3.30
2019-02-07T00:30:09.776Z,3.20
2019-02-07T00:32:37.995Z,3.50
2019-02-07T00:35:06.572Z,3.50
2019-02-07T00:37:34.558Z,3.60
2019-02-07T00:40:02.772Z,3.40
2019-02-07T00:42:30.758Z,3.70
2019-02-07T00:44:58.713Z,3.50
2019-02-07T00:47:26.719Z,3.50
2019-02-07T00:49:54.675Z,3.70
2019-02-07T00:52:22.712Z,3.90
2019-02-07T00:54:50.672Z,3.70
2019-02-07T00:57:18.582Z,3.70
2019-02-07T00:59:46.550Z,3.50
2019-02-07T01:02:14.842Z,3.60
2019-02-07T01:04:42.825Z,3.40
2019-02-07T01:07:10.826Z,3.50
2019-02-07T01:09:39.239Z,3.60
2019-02-07T01:12:07.201Z,3.40
2019-02-07T01:14:35.188Z,3.60
2019-02-07T01:17:03.463Z,3.40
2019-02-07T01:19:31.726Z,3.40
2019-02-07T01:21:59.706Z,3.60
2019-02-07T01:24:27.699Z,3.60
2019-02-07T01:26:55.633Z,3.70
2019-02-07T01:29:23.705Z,3.60
2019-02-07T01:31:51.980Z,3.40
2019-02-07T01:34:20.884Z,3.50
2019-02-07T01:36:49.647Z,3.50
2019-02-07T01:39:18.484Z,3.50
2019-02-07T01:41:46.859Z,3.50
2019-02-07T01:44:14.830Z,3.60
2019-02-07T01:46:42.779Z,3.60
2019-02-07T01:49:10.688Z,3.30
2019-02-07T01:51:38.949Z,3.40
2019-02-07T01:54:06.866Z,3.50
2019-02-07T01:56:34.848Z,2.90
2019-02-07T01:59:02.825Z,3.30
2019-02-07T02:01:30.907Z,3.60
2019-02-07T02:03:58.816Z,3.60
2019-02-07T02:06:26.849Z,3.80
2019-02-07T02:08:55.100Z,3.90
2019-02-07T02:11:23.129Z,3.60
2019-02-07T02:13:51.070Z,3.50
2019-02-07T02:16:19.053Z,3.80
2019-02-07T02:18:47.685Z,3.80
2019-02-07T02:21:15.711Z,4.00
2019-02-07T02:23:43.748Z,3.90
2019-02-07T02:26:11.752Z,3.90
2019-02-07T02:31:42.686Z,4.30
2019-02-07T02:34:11.906Z,4.50
2019-02-07T02:36:39.814Z,4.30
2019-02-07T02:39:08.916Z,4.70
2019-02-07T02:41:50.419Z,4.50
2019-02-07T02:44:18.320Z,4.30
2019-02-07T02:46:46.334Z,4.10
2019-02-07T02:49:14.228Z,4.60
2019-02-07T02:51:42.278Z,4.00
2019-02-07T02:54:29.713Z,4.20
2019-02-07T02:56:57.596Z,4.20
2019-02-07T02:59:25.710Z,3.80
2019-02-07T03:02:05.344Z,4.30
2019-02-07T03:04:52.879Z,4.70
2019-02-07T03:07:36.337Z,4.80
2019-02-07T03:10:16.396Z,4.50
2019-02-07T03:13:04.016Z,4.80
2019-02-07T03:15:54.575Z,4.80
2019-02-07T03:18:53.994Z,4.40
2019-02-07T03:21:53.374Z,4.50
2019-02-07T03:24:39.333Z,4.50
2019-02-07T03:27:25.459Z,4.50
2019-02-07T03:30:30.715Z,4.50
2019-02-07T03:33:09.773Z,4.50
2019-02-07T03:36:03.579Z,4.60
2019-02-07T03:38:49.527Z,4.10
2019-02-07T03:41:37.057Z,3.80
2019-02-07T03:44:18.760Z,4.20
2019-02-07T03:47:15.031Z,4.20
2019-02-07T03:50:00.932Z,4.30
2019-02-07T03:52:47.378Z,4.60
2019-02-07T03:55:24.968Z,4.50
2019-02-07T03:58:18.634Z,4.40
2019-02-07T04:01:18.418Z,4.40
2019-02-07T04:04:24.244Z,4.40
2019-02-07T04:07:03.009Z,4.30
2019-02-07T04:10:08.384Z,4.30
2019-02-07T04:13:07.440Z,4.30
2019-02-07T04:16:15.077Z,4.40
2019-02-07T04:18:52.750Z,4.60
2019-02-07T04:21:37.261Z,4.50
2019-02-07T04:24:17.767Z,4.30
2019-02-07T04:26:55.257Z,3.60
2019-02-07T04:29:33.594Z,4.10
2019-02-07T04:32:19.265Z,4.70
2019-02-07T04:35:12.816Z,4.60
2019-02-07T04:37:58.456Z,5.00
2019-02-07T04:40:58.188Z,5.00
2019-02-07T04:43:54.770Z,5.00
2019-02-07T04:46:40.684Z,5.10
2019-02-07T04:49:40.157Z,4.70
2019-02-07T04:52:36.791Z,4.50
2019-02-07T04:55:23.279Z,4.20
2019-02-07T04:58:07.620Z,4.30
2019-02-07T05:00:53.523Z,4.30
2019-02-07T05:03:35.296Z,4.40
2019-02-07T05:06:10.919Z,4.10
2019-02-07T05:09:07.448Z,4.10
2019-02-07T05:11:45.569Z,3.50
2019-02-07T05:14:31.480Z,3.90
2019-02-07T05:17:09.999Z,3.90
2019-02-07T05:19:57.596Z,4.20
2019-02-07T05:22:40.507Z,3.90
2019-02-07T05:25:37.116Z,3.90
2019-02-07T05:28:24.308Z,3.60
2019-02-07T05:31:10.433Z,3.90
2019-02-07T05:33:56.572Z,3.90
2019-02-07T05:36:44.123Z,4.20
2019-02-07T05:39:43.528Z,3.80
2019-02-07T05:42:33.593Z,4.00
2019-02-07T05:45:33.217Z,3.60
2019-02-07T05:48:38.831Z,3.60
2019-02-07T05:51:36.153Z,3.30
2019-02-07T05:54:35.801Z,3.70
2019-02-07T05:57:13.706Z,3.90
2019-02-07T05:59:59.832Z,4.30
2019-02-07T06:02:41.214Z,4.20
2019-02-07T06:05:22.904Z,4.30
2019-02-07T06:08:11.070Z,4.30
2019-02-07T06:10:49.064Z,4.40
2019-02-07T06:13:55.727Z,4.50
2019-02-07T06:16:41.735Z,4.60
2019-02-07T06:19:31.994Z,4.80
2019-02-07T06:22:18.148Z,4.50
2019-02-07T06:25:04.304Z,4.60
2019-02-07T06:27:58.352Z,4.30
2019-02-07T06:30:42.434Z,4.80
2019-02-07T06:33:30.127Z,4.80
2019-02-07T06:36:15.767Z,4.70
2019-02-07T06:39:09.189Z,4.60
2019-02-07T06:42:14.650Z,4.90
2019-02-07T06:45:20.287Z,4.70
2019-02-07T06:48:06.997Z,4.50
2019-02-07T06:50:47.432Z,4.30
2019-02-07T06:53:52.905Z,4.50
2019-02-07T06:56:43.085Z,4.60
2019-02-07T06:59:30.645Z,4.60
2019-02-07T07:02:18.178Z,4.70
2019-02-07T07:05:05.691Z,4.70
2019-02-07T07:07:51.881Z,4.80
2019-02-07T07:10:39.530Z,5.00
2019-02-07T07:13:39.193Z,5.10
2019-02-07T07:16:22.041Z,5.00
2019-02-07T07:19:29.065Z,4.60
2019-02-07T07:22:21.525Z,4.80
2019-02-07T07:25:12.181Z,4.80
2019-02-07T07:27:59.917Z,5.00
2019-02-07T07:30:46.369Z,5.10
2019-02-07T07:33:33.848Z,5.20
2019-02-07T07:36:23.594Z,5.50
2019-02-07T07:39:14.419Z,5.50
2019-02-07T07:42:19.793Z,5.40
2019-02-07T07:45:26.625Z,5.20
2019-02-07T07:48:11.041Z,5.30
2019-02-07T07:50:57.013Z,5.10
2019-02-07T07:53:59.574Z,5.60
2019-02-07T07:56:45.503Z,5.90
2019-02-07T07:59:42.015Z,5.50
2019-02-07T08:02:30.100Z,5.70
2019-02-07T08:05:23.439Z,4.30
2019-02-07T08:08:23.645Z,5.50
2019-02-07T08:11:00.295Z,5.20
2019-02-07T08:13:48.854Z,5.60
2019-02-07T08:16:36.462Z,5.40
2019-02-07T08:19:23.297Z,5.70
2019-02-07T08:22:13.917Z,5.50
2019-02-07T08:25:02.525Z,5.60
2019-02-07T08:27:48.890Z,5.60
2019-02-07T08:30:36.706Z,4.70
2019-02-07T08:33:26.998Z,4.80
2019-02-07T08:36:07.234Z,5.40
2019-02-07T08:39:03.933Z,5.10
2019-02-07T08:41:51.601Z,5.20
2019-02-07T08:44:38.239Z,4.90
2019-02-07T08:47:35.015Z,4.80
2019-02-07T08:50:26.760Z,5.00
2019-02-07T08:53:03.419Z,5.20
2019-02-07T08:55:57.022Z,5.00
2019-02-07T08:59:02.415Z,5.20
2019-02-07T09:01:55.856Z,5.10
2019-02-07T09:04:42.110Z,5.00
2019-02-07T09:07:35.520Z,4.90
2019-02-07T09:10:44.708Z,5.10
2019-02-07T09:13:47.302Z,5.20
2019-02-07T09:16:31.962Z,5.30
2019-02-07T09:19:29.437Z,5.40
2019-02-07T09:22:23.962Z,5.70
2019-02-07T09:25:10.098Z,5.50
2019-02-07T09:28:10.001Z,6.10
2019-02-07T09:31:06.234Z,5.70
2019-02-07T09:33:52.508Z,5.80
2019-02-07T09:36:40.132Z,5.60
2019-02-07T09:39:37.035Z,5.10
2019-02-07T09:42:16.579Z,4.90
2019-02-07T09:44:57.376Z,5.20
2019-02-07T09:47:43.412Z,5.10
2019-02-07T09:50:29.516Z,5.10
2019-02-07T09:53:10.327Z,5.10
2019-02-07T09:56:06.907Z,5.10
2019-02-07T09:58:57.239Z,5.30
2019-02-07T10:01:59.885Z,5.60
2019-02-07T10:04:38.058Z,5.20
2019-02-07T10:07:16.518Z,5.60
2019-02-07T10:10:03.989Z,5.70
2019-02-07T10:12:57.731Z,5.80
2019-02-07T10:15:50.033Z,5.50
2019-02-07T10:18:55.529Z,6.00
2019-02-07T10:21:41.762Z,5.30
2019-02-07T10:24:27.712Z,5.50
2019-02-07T10:27:15.501Z,5.50
2019-02-07T10:30:08.837Z,5.70
2019-02-07T10:32:54.883Z,5.10
2019-02-07T10:35:34.057Z,5.40
2019-02-07T10:38:21.964Z,5.80
2019-02-07T10:41:14.796Z,6.00
2019-02-07T10:44:11.775Z,5.30
2019-02-07T10:47:00.546Z,5.10
2019-02-07T10:49:46.496Z,5.10
2019-02-07T10:52:33.119Z,5.10
2019-02-07T10:55:29.461Z,5.20
2019-02-07T10:58:25.581Z,5.40
2019-02-07T11:01:25.128Z,5.50
2019-02-07T11:04:20.250Z,5.60
2019-02-07T11:07:08.392Z,5.70
2019-02-07T11:09:48.499Z,5.10
2019-02-07T11:12:40.358Z,5.30
2019-02-07T11:15:37.847Z,5.10
2019-02-07T11:18:24.145Z,5.60
2019-02-07T11:21:10.647Z,5.60
2019-02-07T11:23:56.739Z,5.30
2019-02-07T11:26:47.497Z,5.40
2019-02-07T11:29:23.984Z,5.40
2019-02-07T11:32:11.493Z,5.70
2019-02-07T11:35:02.379Z,5.40
2019-02-07T11:37:44.927Z,5.70
2019-02-07T11:40:47.937Z,5.40
2019-02-07T11:43:44.660Z,5.60
2019-02-07T11:46:37.573Z,5.60
2019-02-07T11:49:27.909Z,5.80
2019-02-07T11:52:27.882Z,5.90
2019-02-07T11:55:07.335Z,5.50
2019-02-07T11:57:56.564Z,5.90
2019-02-07T12:00:43.540Z,6.20
2019-02-07T12:03:29.529Z,6.20
2019-02-07T12:06:09.821Z,6.50
2019-02-07T12:09:09.460Z,6.40
2019-02-07T12:11:55.125Z,6.30
2019-02-07T12:14:37.413Z,6.30
2019-02-07T12:17:24.133Z,6.20
2019-02-07T12:20:08.325Z,6.40
2019-02-07T12:22:58.430Z,5.90
2019-02-07T12:25:49.045Z,6.20
2019-02-07T12:28:44.487Z,6.40
2019-02-07T12:31:26.905Z,6.80
2019-02-07T12:34:20.269Z,6.70
2019-02-07T12:37:07.906Z,6.60
2019-02-07T12:40:07.896Z,6.80
2019-02-07T12:42:45.291Z,6.50
2019-02-07T12:45:22.387Z,6.80
2019-02-07T12:48:09.003Z,6.30
2019-02-07T12:50:52.087Z,6.40
2019-02-07T12:53:41.618Z,6.20
2019-02-07T12:56:28.082Z,6.10
2019-02-07T12:59:15.755Z,6.30
2019-02-07T13:02:06.221Z,5.90
2019-02-07T13:04:53.959Z,5.90
2019-02-07T13:07:40.122Z,6.20
2019-02-07T13:10:42.605Z,6.30
2019-02-07T13:13:30.355Z,6.50
2019-02-07T13:16:08.379Z,6.40
2019-02-07T13:18:52.283Z,6.00
2019-02-07T13:21:52.432Z,6.60
2019-02-07T13:24:42.807Z,6.50
2019-02-07T13:27:34.977Z,7.10
2019-02-07T13:30:24.802Z,7.30
2019-02-07T13:33:21.519Z,7.40
2019-02-07T13:36:07.995Z,6.90
2019-02-07T13:39:04.598Z,7.00
2019-02-07T13:41:50.710Z,7.10
2019-02-07T13:44:31.717Z,7.60
2019-02-07T13:47:25.609Z,7.30
2019-02-07T13:50:16.985Z,7.80
2019-02-07T13:52:57.523Z,7.80
2019-02-07T13:55:53.689Z,7.60
2019-02-07T13:58:41.389Z,7.30
2019-02-07T14:01:40.734Z,7.70
2019-02-07T14:04:34.158Z,7.30
2019-02-07T14:07:13.379Z,7.80
2019-02-07T14:09:55.535Z,7.80
2019-02-07T14:12:41.686Z,8.20
2019-02-07T14:15:28.203Z,8.40
2019-02-07T14:18:06.155Z,8.10
2019-02-07T14:20:53.854Z,8.20
2019-02-07T14:23:39.970Z,8.40
2019-02-07T14:26:23.143Z,8.40
2019-02-07T14:29:07.231Z,8.50
2019-02-07T14:32:07.181Z,8.50
2019-02-07T14:34:54.975Z,8.70
2019-02-07T14:37:40.966Z,8.40
2019-02-07T14:40:28.386Z,8.70
2019-02-07T14:43:05.761Z,8.10
2019-02-07T14:46:02.912Z,8.10
2019-02-07T14:48:35.861Z,8.00
2019-02-07T14:51:07.457Z,7.60
2019-02-07T14:53:37.995Z,7.80
2019-02-07T14:56:14.193Z,7.10
2019-02-07T14:58:43.702Z,7.30
2019-02-07T15:01:15.402Z,7.80
2019-02-07T15:03:49.129Z,7.70
2019-02-07T15:06:18.099Z,7.90
2019-02-07T15:08:48.189Z,8.20
2019-02-07T15:11:17.351Z,8.00
2019-02-07T15:13:46.936Z,8.10
2019-02-07T15:16:15.819Z,8.20
2019-02-07T15:18:46.170Z,8.00
2019-02-07T15:21:14.742Z,7.70
2019-02-07T15:23:43.434Z,8.20
2019-02-07T15:26:12.428Z,8.50
2019-02-07T15:28:41.917Z,8.40
2019-02-07T15:31:10.298Z,8.10
2019-02-07T15:33:38.789Z,8.20
2019-02-07T15:36:09.780Z,8.40
2019-02-07T15:38:39.493Z,8.40
2019-02-07T15:41:08.862Z,7.90
2019-02-07T15:43:37.318Z,8.20
2019-02-07T15:46:07.038Z,7.90
2019-02-07T15:48:35.090Z,8.20
2019-02-07T15:51:03.505Z,8.40
2019-02-07T15:53:31.521Z,8.10
2019-02-07T15:55:59.582Z,8.30
2019-02-07T15:58:39.836Z,8.10
2019-02-07T16:01:15.508Z,8.10
2019-02-07T16:04:05.976Z,8.20
2019-02-07T16:06:34.016Z,8.50
2019-02-07T16:09:03.235Z,8.60
2019-02-07T16:11:32.548Z,8.70
2019-02-07T16:14:00.525Z,8.60
2019-02-07T16:16:28.737Z,8.60
2019-02-07T16:18:56.875Z,8.30
2019-02-07T16:21:24.854Z,8.00
2019-02-07T16:23:53.563Z,8.30
2019-02-07T16:26:21.618Z,8.10
2019-02-07T16:28:49.821Z,8.00
2019-02-07T16:31:17.906Z,8.30
2019-02-07T16:33:46.073Z,8.20
2019-02-07T16:36:15.090Z,8.10
2019-02-07T16:38:43.275Z,7.80
2019-02-07T16:41:11.512Z,8.10
2019-02-07T16:43:40.198Z,8.00
2019-02-07T16:46:08.392Z,8.20
2019-02-07T16:48:36.414Z,8.00
2019-02-07T16:51:05.144Z,8.60
2019-02-07T16:53:33.360Z,8.50
2019-02-07T16:56:01.707Z,8.30
2019-02-07T16:58:29.864Z,8.30
2019-02-07T17:00:58.448Z,8.00
2019-02-07T17:03:26.640Z,7.90
2019-02-07T17:05:54.782Z,8.30
2019-02-07T17:08:22.903Z,8.20
2019-02-07T17:10:51.471Z,7.80
2019-02-07T17:13:20.621Z,7.90
2019-02-07T17:15:48.724Z,7.90
2019-02-07T17:18:16.892Z,7.80
2019-02-07T17:20:45.099Z,7.80
2019-02-07T17:23:13.171Z,7.60
2019-02-07T17:25:41.329Z,7.70
2019-02-07T17:28:09.744Z,7.50
2019-02-07T17:30:37.848Z,7.50
2019-02-07T17:33:06.016Z,7.70
2019-02-07T17:35:34.177Z,7.70
2019-02-07T17:38:03.084Z,7.80
2019-02-07T17:40:32.218Z,7.90
2019-02-07T17:43:00.735Z,7.70
2019-02-07T17:45:29.430Z,7.90
2019-02-07T17:47:57.512Z,7.80
2019-02-07T17:50:28.714Z,7.70
2019-02-07T17:52:57.736Z,7.40
2019-02-07T17:55:26.494Z,7.50
2019-02-07T17:57:54.918Z,7.40
2019-02-07T18:00:29.802Z,7.60
2019-02-07T18:02:58.075Z,7.30
2019-02-07T18:05:26.190Z,7.30
2019-02-07T18:07:54.557Z,7.20
2019-02-07T18:10:23.311Z,6.80
2019-02-07T18:12:51.762Z,7.00
2019-02-07T18:15:21.329Z,6.80
2019-02-07T18:17:50.529Z,7.00
2019-02-07T18:20:19.522Z,7.20
2019-02-07T18:22:47.785Z,7.20
2019-02-07T18:25:16.376Z,7.00
2019-02-07T18:27:44.984Z,6.90
2019-02-07T18:30:18.803Z,6.90
2019-02-07T18:32:47.986Z,7.00
2019-02-07T18:35:17.185Z,7.10
2019-02-07T18:37:45.882Z,7.30
2019-02-07T18:40:18.553Z,7.20
2019-02-07T18:42:46.984Z,7.00
2019-02-07T18:45:17.568Z,7.30
2019-02-07T18:47:46.094Z,7.30
2019-02-07T18:50:21.751Z,7.50
2019-02-07T18:52:49.967Z,7.40
2019-02-07T18:55:18.324Z,7.40
2019-02-07T18:57:46.861Z,7.50
2019-02-07T19:00:22.406Z,7.70
2019-02-07T19:02:52.246Z,7.50
2019-02-07T19:05:22.114Z,7.60
2019-02-07T19:07:50.956Z,7.80
2019-02-07T19:10:21.888Z,8.30
2019-02-07T19:12:52.071Z,7.80
2019-02-07T19:15:30.323Z,8.00
2019-02-07T19:17:58.831Z,7.80
2019-02-07T19:20:47.981Z,8.10
2019-02-07T19:23:16.377Z,8.20
2019-02-07T19:25:44.786Z,8.10
2019-02-07T19:28:13.833Z,8.40
2019-02-07T19:30:42.303Z,8.00
2019-02-07T19:33:10.595Z,8.10
2019-02-07T19:35:40.137Z,8.00
2019-02-07T19:38:08.506Z,8.30
2019-02-07T19:40:36.909Z,7.80
2019-02-07T19:43:05.377Z,8.20
2019-02-07T19:45:33.776Z,8.00
2019-02-07T19:48:01.995Z,7.90
2019-02-07T19:50:30.518Z,7.50
2019-02-07T19:52:58.746Z,7.50
2019-02-07T19:55:28.039Z,7.50
2019-02-07T19:57:56.872Z,7.00
2019-02-07T20:00:28.545Z,7.20
2019-02-07T20:02:57.296Z,7.20
2019-02-07T20:05:25.708Z,7.10
2019-02-07T20:07:53.953Z,7.00
2019-02-07T20:10:23.903Z,7.10
2019-02-07T20:12:53.860Z,6.90
2019-02-07T20:15:42.801Z,7.10
2019-02-07T20:18:15.759Z,7.10
2019-02-07T20:20:49.088Z,6.90
2019-02-07T20:23:19.033Z,7.00
2019-02-07T20:25:47.588Z,7.00
2019-02-07T20:28:16.203Z,7.10
2019-02-07T20:33:22.651Z,6.70
2019-02-07T20:35:51.279Z,7.10
2019-02-07T20:38:21.126Z,7.00
2019-02-07T20:40:49.883Z,7.20
2019-02-07T20:43:19.315Z,7.10
2019-02-07T20:45:48.735Z,7.00
2019-02-07T20:48:17.305Z,6.80
2019-02-07T20:50:45.951Z,6.70
2019-02-07T20:53:18.101Z,7.00
2019-02-07T20:55:46.696Z,6.80
2019-02-07T20:58:14.893Z,6.60
2019-02-07T21:00:44.016Z,6.80
2019-02-07T21:03:12.359Z,6.80
2019-02-07T21:05:41.937Z,6.80
2019-02-07T21:08:10.467Z,6.60
2019-02-07T21:10:39.170Z,6.80
2019-02-07T21:13:18.788Z,6.70
2019-02-07T21:15:47.497Z,6.90
2019-02-07T21:18:15.770Z,6.90
2019-02-07T21:20:44.219Z,7.00
2019-02-07T21:23:12.699Z,7.30
2019-02-07T21:25:44.972Z,7.10
2019-02-07T21:28:16.227Z,7.00
2019-02-07T21:30:44.849Z,7.20
2019-02-07T21:33:13.044Z,7.00
2019-02-07T21:35:45.375Z,6.80
2019-02-07T21:38:17.678Z,6.80
2019-02-07T21:40:47.858Z,6.90
2019-02-07T21:43:16.231Z,7.20
2019-02-07T21:45:50.086Z,7.20
2019-02-07T21:48:24.228Z,6.80
2019-02-07T21:50:54.167Z,7.20
2019-02-07T21:53:22.325Z,7.40
2019-02-07T21:55:50.650Z,7.20
2019-02-07T21:58:19.420Z,7.60
2019-02-07T22:00:47.592Z,7.40
2019-02-07T22:03:16.805Z,8.00
2019-02-07T22:05:45.435Z,7.80
2019-02-07T22:08:14.434Z,8.00
2019-02-07T22:10:43.632Z,7.90
2019-02-07T22:13:13.462Z,8.00
2019-02-07T22:15:41.622Z,8.10
2019-02-07T22:18:10.855Z,7.90
2019-02-07T22:20:40.346Z,8.00
2019-02-07T22:23:08.621Z,8.00
2019-02-07T22:25:38.279Z,8.00
2019-02-07T22:28:07.740Z,7.90
2019-02-07T22:30:36.285Z,7.70
2019-02-07T22:33:05.272Z,7.60
2019-02-07T22:35:40.146Z,7.60
2019-02-07T22:38:09.438Z,7.40
2019-02-07T22:40:40.889Z,7.40
2019-02-07T22:43:10.847Z,7.60
2019-02-07T22:45:40.100Z,7.40
2019-02-07T22:48:12.073Z,7.60
2019-02-07T22:50:42.755Z,7.60
2019-02-07T22:53:10.764Z,7.50
2019-02-07T22:55:38.891Z,7.60
2019-02-07T22:58:08.454Z,7.50
2019-02-07T23:01:46.050Z,7.70
2019-02-07T23:04:15.747Z,7.70
2019-02-07T23:06:43.811Z,7.60
2019-02-07T23:09:14.015Z,7.30
2019-02-07T23:11:42.084Z,7.30
2019-02-07T23:14:11.378Z,7.50
2019-02-07T23:16:40.211Z,7.50
2019-02-07T23:19:08.402Z,7.20
2019-02-07T23:21:36.351Z,7.20
2019-02-07T23:24:05.006Z,7.20
2019-02-07T23:26:33.100Z,7.10
2019-02-07T23:29:01.221Z,7.00
2019-02-07T23:31:29.164Z,7.20
2019-02-07T23:33:58.202Z,7.10
2019-02-07T23:36:26.279Z,7.30
2019-02-07T23:38:54.344Z,7.20
2019-02-07T23:41:22.427Z,7.30
2019-02-07T23:43:50.441Z,7.10
2019-02-07T23:46:18.580Z,7.10
2019-02-07T23:48:46.952Z,7.20
2019-02-07T23:51:14.959Z,7.40
2019-02-07T23:53:43.161Z,7.30
2019-02-07T23:56:11.307Z,7.30
2019-02-07T23:58:39.352Z,7.50
